sensor_id;sensor_type;location;lat;lon;timestamp;pressure;altitude;pressure_sealevel;temperature;humidity
70127;BME280;57491;42.694;23.314;2024-02-15T00:00:51;95551.06;;;5.95;54.38
70127;BME280;57491;42.694;23.314;2024-02-15T00:03:19;95555.69;;;6.01;54.78
70127;BME280;57491;42.694;23.314;2024-02-15T00:05:47;95550.13;;;5.96;54.59
70127;BME280;57491;42.694;23.314;2024-02-15T00:08:15;95554.38;;;5.88;56.45
70127;BME280;57491;42.694;23.314;2024-02-15T00:10:43;95564.56;;;5.89;54.61
70127;BME280;57491;42.694;23.314;2024-02-15T00:13:12;95559.22;;;5.91;54.50
70127;BME280;57491;42.694;23.314;2024-02-15T00:15:39;95552.88;;;5.75;54.90
70127;BME280;57491;42.694;23.314;2024-02-15T00:18:07;95561.66;;;5.82;54.53
70127;BME280;57491;42.694;23.314;2024-02-15T00:20:34;95568.06;;;5.78;54.42
70127;BME280;57491;42.694;23.314;2024-02-15T00:23:01;95562.09;;;5.88;54.30
70127;BME280;57491;42.694;23.314;2024-02-15T00:25:30;95569.97;;;5.96;57.09
70127;BME280;57491;42.694;23.314;2024-02-15T00:27:57;95561.81;;;5.91;54.49
70127;BME280;57491;42.694;23.314;2024-02-15T00:30:26;95569.69;;;5.99;54.29
70127;BME280;57491;42.694;23.314;2024-02-15T00:32:54;95576.47;;;6.00;54.66
70127;BME280;57491;42.694;23.314;2024-02-15T00:35:21;95524.34;;;5.67;53.83
70127;BME280;57491;42.694;23.314;2024-02-15T00:37:48;95571.47;;;5.89;53.89
70127;BME280;57491;42.694;23.314;2024-02-15T00:40:16;95582.75;;;5.88;53.90
70127;BME280;57491;42.694;23.314;2024-02-15T00:42:45;95576.75;;;5.77;54.83
70127;BME280;57491;42.694;23.314;2024-02-15T00:45:12;95579.47;;;5.76;54.57
70127;BME280;57491;42.694;23.314;2024-02-15T00:47:40;95569.97;;;5.67;55.25
70127;BME280;57491;42.694;23.314;2024-02-15T00:50:08;95576.63;;;5.79;55.22
70127;BME280;57491;42.694;23.314;2024-02-15T00:52:35;95577.88;;;5.94;58.33
70127;BME280;57491;42.694;23.314;2024-02-15T00:55:03;95565.06;;;5.83;54.53
70127;BME280;57491;42.694;23.314;2024-02-15T00:57:31;95566.00;;;5.72;54.55
70127;BME280;57491;42.694;23.314;2024-02-15T01:00:00;95577.44;;;5.70;54.87
70127;BME280;57491;42.694;23.314;2024-02-15T01:02:29;95562.50;;;5.64;55.66
70127;BME280;57491;42.694;23.314;2024-02-15T01:04:57;95580.56;;;5.73;54.43
70127;BME280;57491;42.694;23.314;2024-02-15T01:07:24;95577.03;;;5.74;54.65
70127;BME280;57491;42.694;23.314;2024-02-15T01:09:53;95568.59;;;5.72;55.49
70127;BME280;57491;42.694;23.314;2024-02-15T01:12:21;95567.00;;;5.62;55.06
70127;BME280;57491;42.694;23.314;2024-02-15T01:14:48;95570.38;;;5.62;55.05
70127;BME280;57491;42.694;23.314;2024-02-15T01:17:17;95573.78;;;5.53;55.13
70127;BME280;57491;42.694;23.314;2024-02-15T01:19:44;95556.56;;;5.54;56.01
70127;BME280;57491;42.694;23.314;2024-02-15T01:22:11;95569.69;;;5.70;56.10
70127;BME280;57491;42.694;23.314;2024-02-15T01:24:39;95572.94;;;5.72;54.67
70127;BME280;57491;42.694;23.314;2024-02-15T01:27:06;95567.53;;;5.65;54.80
70127;BME280;57491;42.694;23.314;2024-02-15T01:29:34;95565.06;;;5.64;54.47
70127;BME280;57491;42.694;23.314;2024-02-15T01:32:02;95570.78;;;5.67;54.86
70127;BME280;57491;42.694;23.314;2024-02-15T01:34:32;95554.50;;;5.57;56.76
70127;BME280;57491;42.694;23.314;2024-02-15T01:36:59;95563.72;;;5.69;54.99
70127;BME280;57491;42.694;23.314;2024-02-15T01:39:27;95569.00;;;5.68;54.83
70127;BME280;57491;42.694;23.314;2024-02-15T01:41:54;95560.59;;;5.66;54.77
70127;BME280;57491;42.694;23.314;2024-02-15T01:44:22;95563.59;;;5.61;54.65
70127;BME280;57491;42.694;23.314;2024-02-15T01:46:50;95575.69;;;5.70;56.15
70127;BME280;57491;42.694;23.314;2024-02-15T01:49:20;95568.06;;;5.78;54.79
70127;BME280;57491;42.694;23.314;2024-02-15T01:51:50;95568.59;;;5.72;54.35
70127;BME280;57491;42.694;23.314;2024-02-15T01:54:19;95561.31;;;5.58;54.65
70127;BME280;57491;42.694;23.314;2024-02-15T01:56:47;95560.88;;;5.53;55.17
70127;BME280;57491;42.694;23.314;2024-02-15T01:59:15;95580.84;;;5.61;57.24
70127;BME280;57491;42.694;23.314;2024-02-15T02:01:44;95554.50;;;5.38;55.65
70127;BME280;57491;42.694;23.314;2024-02-15T02:04:12;95518.41;;;5.19;55.34
70127;BME280;57491;42.694;23.314;2024-02-15T02:06:39;95562.09;;;5.39;55.14
70127;BME280;57491;42.694;23.314;2024-02-15T02:09:10;95579.06;;;5.52;56.36
70127;BME280;57491;42.694;23.314;2024-02-15T02:11:38;95576.50;;;5.61;58.41
70127;BME280;57491;42.694;23.314;2024-02-15T02:14:06;95580.97;;;5.69;54.76
70127;BME280;57491;42.694;23.314;2024-02-15T02:16:33;95576.75;;;5.68;54.58
70127;BME280;57491;42.694;23.314;2024-02-15T02:19:01;95568.06;;;5.59;55.23
70127;BME280;57491;42.694;23.314;2024-02-15T02:21:33;95588.69;;;5.59;55.21
70127;BME280;57491;42.694;23.314;2024-02-15T02:24:03;95547.03;;;5.35;57.35
70127;BME280;57491;42.694;23.314;2024-02-15T02:26:35;95573.63;;;5.55;56.02
70127;BME280;57491;42.694;23.314;2024-02-15T02:29:03;95577.31;;;5.62;55.53
70127;BME280;57491;42.694;23.314;2024-02-15T02:31:32;95588.97;;;5.66;55.12
70127;BME280;57491;42.694;23.314;2024-02-15T02:34:05;95583.53;;;5.50;55.27
70127;BME280;57491;42.694;23.314;2024-02-15T02:36:34;95583.28;;;5.43;55.26
70127;BME280;57491;42.694;23.314;2024-02-15T02:39:09;95586.53;;;5.35;55.63
70127;BME280;57491;42.694;23.314;2024-02-15T02:41:38;95593.03;;;5.30;55.40
70127;BME280;57491;42.694;23.314;2024-02-15T02:44:05;95585.03;;;5.33;55.57
70127;BME280;57491;42.694;23.314;2024-02-15T02:46:33;95590.59;;;5.38;55.51
70127;BME280;57491;42.694;23.314;2024-02-15T02:49:00;95589.91;;;5.36;55.82
70127;BME280;57491;42.694;23.314;2024-02-15T02:51:27;95593.97;;;5.29;55.89
70127;BME280;57491;42.694;23.314;2024-02-15T02:53:54;95601.28;;;5.24;56.35
70127;BME280;57491;42.694;23.314;2024-02-15T02:56:21;95589.63;;;5.20;56.31
70127;BME280;57491;42.694;23.314;2024-02-15T02:58:51;95595.63;;;5.30;57.12
70127;BME280;57491;42.694;23.314;2024-02-15T03:01:18;95596.72;;;5.47;57.44
70127;BME280;57491;42.694;23.314;2024-02-15T03:03:46;95595.50;;;5.51;56.02
70127;BME280;57491;42.694;23.314;2024-02-15T03:06:13;95591.97;;;5.42;56.17
70127;BME280;57491;42.694;23.314;2024-02-15T03:08:41;95597.63;;;5.36;59.26
70127;BME280;57491;42.694;23.314;2024-02-15T03:11:08;95597.25;;;5.50;57.97
70127;BME280;57491;42.694;23.314;2024-02-15T03:13:35;95601.34;;;5.62;55.54
70127;BME280;57491;42.694;23.314;2024-02-15T03:16:04;95591.00;;;5.43;55.71
70127;BME280;57491;42.694;23.314;2024-02-15T03:18:32;95602.41;;;5.40;56.45
70127;BME280;57491;42.694;23.314;2024-02-15T03:20:59;95607.81;;;5.37;55.68
70127;BME280;57491;42.694;23.314;2024-02-15T03:23:26;95606.03;;;5.19;56.58
70127;BME280;57491;42.694;23.314;2024-02-15T03:25:54;95601.94;;;5.07;56.87
70127;BME280;57491;42.694;23.314;2024-02-15T03:28:21;95604.91;;;5.02;57.22
70127;BME280;57491;42.694;23.314;2024-02-15T03:30:50;95608.75;;;5.08;57.38
70127;BME280;57491;42.694;23.314;2024-02-15T03:33:19;95620.03;;;5.26;60.81
70127;BME280;57491;42.694;23.314;2024-02-15T03:35:52;95619.63;;;5.30;57.58
70127;BME280;57491;42.694;23.314;2024-02-15T03:38:19;95618.03;;;5.39;57.18
70127;BME280;57491;42.694;23.314;2024-02-15T03:40:47;95607.41;;;5.23;56.44
70127;BME280;57491;42.694;23.314;2024-02-15T03:43:15;95615.69;;;5.26;58.84
70127;BME280;57491;42.694;23.314;2024-02-15T03:45:42;95613.25;;;5.25;57.02
70127;BME280;57491;42.694;23.314;2024-02-15T03:48:10;95617.97;;;5.20;56.08
70127;BME280;57491;42.694;23.314;2024-02-15T03:50:39;95615.91;;;5.14;58.89
70127;BME280;57491;42.694;23.314;2024-02-15T03:53:07;95616.75;;;5.14;57.09
70127;BME280;57491;42.694;23.314;2024-02-15T03:55:34;95568.16;;;4.90;57.01
70127;BME280;57491;42.694;23.314;2024-02-15T03:58:02;95619.63;;;5.21;56.78
70127;BME280;57491;42.694;23.314;2024-02-15T04:00:30;95614.28;;;5.03;56.46
70127;BME280;57491;42.694;23.314;2024-02-15T04:02:57;95618.09;;;5.09;60.65
70127;BME280;57491;42.694;23.314;2024-02-15T04:05:26;95608.88;;;5.16;57.46
70127;BME280;57491;42.694;23.314;2024-02-15T04:07:56;95609.00;;;5.14;56.71
70127;BME280;57491;42.694;23.314;2024-02-15T04:10:24;95619.03;;;4.98;56.82
70127;BME280;57491;42.694;23.314;2024-02-15T04:12:51;95617.78;;;4.92;57.11
70127;BME280;57491;42.694;23.314;2024-02-15T04:15:19;95617.75;;;4.83;58.01
70127;BME280;57491;42.694;23.314;2024-02-15T04:17:46;95630.00;;;4.90;59.30
70127;BME280;57491;42.694;23.314;2024-02-15T04:20:14;95623.31;;;4.88;57.85
70127;BME280;57491;42.694;23.314;2024-02-15T04:22:43;95625.78;;;4.89;56.85
70127;BME280;57491;42.694;23.314;2024-02-15T04:25:11;95617.78;;;4.92;64.10
70127;BME280;57491;42.694;23.314;2024-02-15T04:27:42;95609.69;;;4.67;57.83
70127;BME280;57491;42.694;23.314;2024-02-15T04:30:10;95626.00;;;4.77;58.06
70127;BME280;57491;42.694;23.314;2024-02-15T04:32:37;95622.50;;;4.87;60.37
70127;BME280;57491;42.694;23.314;2024-02-15T04:35:05;95620.81;;;5.07;61.34
70127;BME280;57491;42.694;23.314;2024-02-15T04:37:32;95615.34;;;5.01;57.78
70127;BME280;57491;42.694;23.314;2024-02-15T04:40:00;95625.78;;;4.89;58.16
70127;BME280;57491;42.694;23.314;2024-02-15T04:42:36;95626.00;;;4.86;58.37
70127;BME280;57491;42.694;23.314;2024-02-15T04:45:06;95631.31;;;4.85;57.65
70127;BME280;57491;42.694;23.314;2024-02-15T04:47:35;95631.34;;;4.94;57.82
70127;BME280;57491;42.694;23.314;2024-02-15T04:50:03;95619.91;;;4.87;59.13
70127;BME280;57491;42.694;23.314;2024-02-15T04:52:31;95646.69;;;5.06;57.77
70127;BME280;57491;42.694;23.314;2024-02-15T04:54:59;95638.19;;;5.15;58.05
70127;BME280;57491;42.694;23.314;2024-02-15T04:57:27;95647.75;;;4.93;56.99
70127;BME280;57491;42.694;23.314;2024-02-15T04:59:57;95652.63;;;4.97;60.09
70127;BME280;57491;42.694;23.314;2024-02-15T05:02:25;95648.59;;;5.04;57.75
70127;BME280;57491;42.694;23.314;2024-02-15T05:04:53;95656.50;;;5.12;60.58
70127;BME280;57491;42.694;23.314;2024-02-15T05:07:22;95660.78;;;5.02;58.70
70127;BME280;57491;42.694;23.314;2024-02-15T05:09:49;95661.88;;;4.99;60.97
70127;BME280;57491;42.694;23.314;2024-02-15T05:12:22;95666.22;;;4.99;57.77
70127;BME280;57491;42.694;23.314;2024-02-15T05:14:50;95661.56;;;4.92;58.68
70127;BME280;57491;42.694;23.314;2024-02-15T05:17:20;95649.31;;;4.75;57.92
70127;BME280;57491;42.694;23.314;2024-02-15T05:19:47;95659.94;;;4.91;58.41
70127;BME280;57491;42.694;23.314;2024-02-15T05:22:15;95672.38;;;4.86;57.99
70127;BME280;57491;42.694;23.314;2024-02-15T05:24:44;95670.78;;;4.85;57.85
70127;BME280;57491;42.694;23.314;2024-02-15T05:27:11;95668.63;;;4.90;57.87
70127;BME280;57491;42.694;23.314;2024-02-15T05:29:38;95667.81;;;4.90;58.29
70127;BME280;57491;42.694;23.314;2024-02-15T05:32:09;95677.66;;;4.75;57.86
70127;BME280;57491;42.694;23.314;2024-02-15T05:34:38;95673.16;;;4.68;57.98
70127;BME280;57491;42.694;23.314;2024-02-15T05:37:05;95673.16;;;4.68;61.81
70127;BME280;57491;42.694;23.314;2024-02-15T05:39:33;95678.16;;;4.69;58.48
70127;BME280;57491;42.694;23.314;2024-02-15T05:42:01;95676.88;;;4.54;58.67
70127;BME280;57491;42.694;23.314;2024-02-15T05:44:28;95671.66;;;4.44;59.09
70127;BME280;57491;42.694;23.314;2024-02-15T05:46:56;95670.34;;;4.50;59.30
70127;BME280;57491;42.694;23.314;2024-02-15T05:49:23;95691.47;;;4.74;63.67
70127;BME280;57491;42.694;23.314;2024-02-15T05:51:52;95679.84;;;4.80;58.13
70127;BME280;57491;42.694;23.314;2024-02-15T05:54:20;95695.69;;;4.75;58.70
70127;BME280;57491;42.694;23.314;2024-02-15T05:56:48;95696.88;;;4.71;58.81
70127;BME280;57491;42.694;23.314;2024-02-15T05:59:18;95699.75;;;4.78;58.58
70127;BME280;57491;42.694;23.314;2024-02-15T06:01:46;95698.53;;;4.82;58.78
70127;BME280;57491;42.694;23.314;2024-02-15T06:04:14;95695.97;;;4.82;57.79
70127;BME280;57491;42.694;23.314;2024-02-15T06:06:41;95704.78;;;4.79;58.49
70127;BME280;57491;42.694;23.314;2024-02-15T06:09:10;95703.31;;;4.86;59.40
70127;BME280;57491;42.694;23.314;2024-02-15T06:11:38;95699.69;;;4.89;58.00
70127;BME280;57491;42.694;23.314;2024-02-15T06:14:05;95711.66;;;5.00;58.28
70127;BME280;57491;42.694;23.314;2024-02-15T06:16:33;95707.41;;;4.89;58.29
70127;BME280;57491;42.694;23.314;2024-02-15T06:19:00;95713.66;;;4.96;57.95
70127;BME280;57491;42.694;23.314;2024-02-15T06:21:27;95716.66;;;5.01;60.13
70127;BME280;57491;42.694;23.314;2024-02-15T06:23:55;95721.59;;;5.14;57.98
70127;BME280;57491;42.694;23.314;2024-02-15T06:26:25;95718.81;;;5.26;57.98
70127;BME280;57491;42.694;23.314;2024-02-15T06:28:52;95723.50;;;5.12;56.28
70127;BME280;57491;42.694;23.314;2024-02-15T06:31:36;95725.91;;;5.04;56.65
70127;BME280;57491;42.694;23.314;2024-02-15T06:34:21;95732.84;;;5.03;57.07
70127;BME280;57491;42.694;23.314;2024-02-15T06:37:06;95731.94;;;5.23;59.85
70127;BME280;57491;42.694;23.314;2024-02-15T06:39:51;95728.75;;;5.40;56.74
70127;BME280;57491;42.694;23.314;2024-02-15T06:42:19;95736.34;;;5.42;56.72
70127;BME280;57491;42.694;23.314;2024-02-15T06:44:48;95743.16;;;5.43;56.33
70127;BME280;57491;42.694;23.314;2024-02-15T06:47:16;95738.00;;;5.43;56.87
70127;BME280;57491;42.694;23.314;2024-02-15T06:49:45;95740.38;;;5.65;56.43
70127;BME280;57491;42.694;23.314;2024-02-15T06:52:16;95746.88;;;5.69;56.71
70127;BME280;57491;42.694;23.314;2024-02-15T06:54:44;95739.88;;;5.91;55.96
70127;BME280;57491;42.694;23.314;2024-02-15T06:57:11;95736.91;;;5.95;54.47
70127;BME280;57491;42.694;23.314;2024-02-15T06:59:41;95745.47;;;5.96;54.48
70127;BME280;57491;42.694;23.314;2024-02-15T07:02:09;95743.44;;;5.90;54.48
70127;BME280;57491;42.694;23.314;2024-02-15T07:04:38;95731.34;;;6.00;55.32
70127;BME280;57491;42.694;23.314;2024-02-15T07:07:06;95738.97;;;6.30;55.38
70127;BME280;57491;42.694;23.314;2024-02-15T07:09:33;95713.94;;;6.40;53.50
70127;BME280;57491;42.694;23.314;2024-02-15T07:12:00;95731.94;;;6.98;52.19
70127;BME280;57491;42.694;23.314;2024-02-15T07:14:28;95734.91;;;7.30;50.64
70127;BME280;57491;42.694;23.314;2024-02-15T07:16:56;95728.41;;;7.53;49.78
70127;BME280;57491;42.694;23.314;2024-02-15T07:19:24;95734.97;;;7.48;49.54
70127;BME280;57491;42.694;23.314;2024-02-15T07:21:53;95732.44;;;7.38;49.56
70127;BME280;57491;42.694;23.314;2024-02-15T07:24:22;95720.94;;;7.50;49.52
70127;BME280;57491;42.694;23.314;2024-02-15T07:26:52;95720.63;;;7.81;48.51
70127;BME280;57491;42.694;23.314;2024-02-15T07:29:21;95722.56;;;7.96;47.40
70127;BME280;57491;42.694;23.314;2024-02-15T07:31:49;95721.47;;;7.99;47.48
70127;BME280;57491;42.694;23.314;2024-02-15T07:34:18;95717.84;;;8.27;49.99
70127;BME280;57491;42.694;23.314;2024-02-15T07:36:45;95711.19;;;8.86;45.90
70127;BME280;57491;42.694;23.314;2024-02-15T07:39:12;95702.50;;;8.95;45.96
70127;BME280;57491;42.694;23.314;2024-02-15T07:41:49;95707.50;;;9.22;44.86
70127;BME280;57491;42.694;23.314;2024-02-15T07:44:16;95709.88;;;9.50;44.95
70127;BME280;57491;42.694;23.314;2024-02-15T07:46:45;95697.16;;;9.72;43.49
70127;BME280;57491;42.694;23.314;2024-02-15T07:49:12;95700.78;;;10.04;42.68
70127;BME280;57491;42.694;23.314;2024-02-15T07:51:41;95693.75;;;9.88;42.77
70127;BME280;57491;42.694;23.314;2024-02-15T07:54:09;95715.94;;;10.16;44.64
70127;BME280;57491;42.694;23.314;2024-02-15T07:56:36;95719.19;;;10.67;42.26
70127;BME280;57491;42.694;23.314;2024-02-15T07:59:04;95710.38;;;10.92;40.59
70127;BME280;57491;42.694;23.314;2024-02-15T08:01:33;95712.00;;;10.85;40.98
70127;BME280;57491;42.694;23.314;2024-02-15T08:04:00;95714.66;;;10.61;40.98
70127;BME280;57491;42.694;23.314;2024-02-15T08:06:27;95709.09;;;10.88;40.56
70127;BME280;57491;42.694;23.314;2024-02-15T08:08:59;95703.88;;;10.88;40.55
70127;BME280;57491;42.694;23.314;2024-02-15T08:11:26;95702.22;;;11.03;40.70
70127;BME280;57491;42.694;23.314;2024-02-15T08:13:53;95692.34;;;10.83;40.39
70127;BME280;57491;42.694;23.314;2024-02-15T08:16:24;95702.09;;;10.89;41.49
70127;BME280;57491;42.694;23.314;2024-02-15T08:18:53;95697.38;;;11.39;40.82
70127;BME280;57491;42.694;23.314;2024-02-15T08:21:25;95696.25;;;12.12;38.90
70127;BME280;57491;42.694;23.314;2024-02-15T08:23:53;95687.06;;;12.24;37.99
70127;BME280;57491;42.694;23.314;2024-02-15T08:26:22;95695.56;;;12.78;37.63
70127;BME280;57491;42.694;23.314;2024-02-15T08:28:50;95694.34;;;13.03;36.89
70127;BME280;57491;42.694;23.314;2024-02-15T08:31:18;95687.81;;;13.36;36.17
70127;BME280;57491;42.694;23.314;2024-02-15T08:33:46;95675.91;;;13.34;35.59
70127;BME280;57491;42.694;23.314;2024-02-15T08:36:13;95676.47;;;13.44;35.47
70127;BME280;57491;42.694;23.314;2024-02-15T08:38:40;95685.72;;;13.61;36.18
70127;BME280;57491;42.694;23.314;2024-02-15T08:41:08;95685.09;;;13.59;34.42
70127;BME280;57491;42.694;23.314;2024-02-15T08:43:38;95683.00;;;13.69;34.17
70127;BME280;57491;42.694;23.314;2024-02-15T08:46:07;95682.50;;;13.45;34.68
70127;BME280;57491;42.694;23.314;2024-02-15T08:48:34;95674.28;;;13.33;35.14
70127;BME280;57491;42.694;23.314;2024-02-15T08:51:02;95673.78;;;13.23;36.15
70127;BME280;57491;42.694;23.314;2024-02-15T08:53:31;95686.38;;;13.34;35.15
70127;BME280;57491;42.694;23.314;2024-02-15T08:55:59;95683.59;;;13.50;35.04
70127;BME280;57491;42.694;23.314;2024-02-15T08:58:27;95676.13;;;13.83;34.33
70127;BME280;57491;42.694;23.314;2024-02-15T09:00:57;95676.72;;;14.36;34.18
70127;BME280;57491;42.694;23.314;2024-02-15T09:03:24;95681.47;;;14.74;32.59
70127;BME280;57491;42.694;23.314;2024-02-15T09:05:52;95678.56;;;14.91;32.82
70127;BME280;57491;42.694;23.314;2024-02-15T09:08:19;95677.81;;;15.31;33.05
70127;BME280;57491;42.694;23.314;2024-02-15T09:10:47;95676.91;;;15.93;31.39
70127;BME280;57491;42.694;23.314;2024-02-15T09:13:14;95681.44;;;16.32;30.91
70127;BME280;57491;42.694;23.314;2024-02-15T09:15:42;95673.03;;;16.69;30.80
70127;BME280;57491;42.694;23.314;2024-02-15T09:18:10;95666.56;;;16.85;29.87
70127;BME280;57491;42.694;23.314;2024-02-15T09:20:38;95648.59;;;16.82;28.94
70127;BME280;57491;42.694;23.314;2024-02-15T09:23:10;95625.34;;;16.46;29.31
70127;BME280;57491;42.694;23.314;2024-02-15T09:25:38;95663.69;;;16.53;30.70
70127;BME280;57491;42.694;23.314;2024-02-15T09:28:05;95664.56;;;16.87;29.92
70127;BME280;57491;42.694;23.314;2024-02-15T09:30:33;95661.47;;;17.16;29.30
70127;BME280;57491;42.694;23.314;2024-02-15T09:33:01;95661.81;;;17.39;28.25
70127;BME280;57491;42.694;23.314;2024-02-15T09:35:32;95662.09;;;17.05;29.57
70127;BME280;57491;42.694;23.314;2024-02-15T09:37:59;95655.22;;;17.11;28.28
70127;BME280;57491;42.694;23.314;2024-02-15T09:40:27;95643.75;;;16.92;28.38
70127;BME280;57491;42.694;23.314;2024-02-15T09:42:55;95647.09;;;17.25;28.42
70127;BME280;57491;42.694;23.314;2024-02-15T09:45:22;95621.31;;;16.96;29.53
70127;BME280;57491;42.694;23.314;2024-02-15T09:47:50;95649.50;;;17.40;27.22
70127;BME280;57491;42.694;23.314;2024-02-15T09:50:18;95648.44;;;17.54;29.21
70127;BME280;57491;42.694;23.314;2024-02-15T09:52:48;95635.78;;;18.20;27.72
70127;BME280;57491;42.694;23.314;2024-02-15T09:55:16;95646.09;;;17.91;27.18
70127;BME280;57491;42.694;23.314;2024-02-15T09:57:44;95640.16;;;18.02;27.09
70127;BME280;57491;42.694;23.314;2024-02-15T10:00:14;95631.22;;;18.09;27.64
70127;BME280;57491;42.694;23.314;2024-02-15T10:02:43;95641.66;;;18.79;26.65
70127;BME280;57491;42.694;23.314;2024-02-15T10:05:11;95637.66;;;19.37;26.10
70127;BME280;57491;42.694;23.314;2024-02-15T10:07:38;95639.03;;;19.94;25.44
70127;BME280;57491;42.694;23.314;2024-02-15T10:10:16;95600.66;;;20.10;24.21
70127;BME280;57491;42.694;23.314;2024-02-15T10:12:45;95626.41;;;20.56;24.15
70127;BME280;57491;42.694;23.314;2024-02-15T10:15:31;95591.72;;;20.87;23.06
70127;BME280;57491;42.694;23.314;2024-02-15T10:18:00;95615.97;;;21.08;23.62
70127;BME280;57491;42.694;23.314;2024-02-15T10:20:28;95605.66;;;21.29;22.94
70127;BME280;57491;42.694;23.314;2024-02-15T10:23:09;95604.16;;;21.62;23.37
70127;BME280;57491;42.694;23.314;2024-02-15T10:25:38;95605.78;;;22.31;21.71
70127;BME280;57491;42.694;23.314;2024-02-15T10:28:06;95603.91;;;22.77;21.36
70127;BME280;57491;42.694;23.314;2024-02-15T10:30:34;95601.56;;;22.80;20.71
70127;BME280;57491;42.694;23.314;2024-02-15T10:33:02;95599.22;;;23.00;20.69
70127;BME280;57491;42.694;23.314;2024-02-15T10:35:31;95591.38;;;23.27;20.37
70127;BME280;57491;42.694;23.314;2024-02-15T10:38:07;95592.72;;;22.75;20.73
70127;BME280;57491;42.694;23.314;2024-02-15T10:40:35;95586.59;;;23.07;20.91
70127;BME280;57491;42.694;23.314;2024-02-15T10:43:04;95581.63;;;23.98;20.57
70127;BME280;57491;42.694;23.314;2024-02-15T10:45:34;95586.25;;;24.34;19.47
70127;BME280;57491;42.694;23.314;2024-02-15T10:48:05;95565.66;;;24.52;20.03
70127;BME280;57491;42.694;23.314;2024-02-15T10:50:32;95582.28;;;24.69;18.75
70127;BME280;57491;42.694;23.314;2024-02-15T10:52:59;95577.16;;;24.89;18.57
70127;BME280;57491;42.694;23.314;2024-02-15T10:55:37;95569.88;;;24.48;18.84
70127;BME280;57491;42.694;23.314;2024-02-15T10:58:07;95576.34;;;23.16;20.05
70127;BME280;57491;42.694;23.314;2024-02-15T11:00:35;95570.03;;;23.82;19.66
70127;BME280;57491;42.694;23.314;2024-02-15T11:03:07;95573.84;;;23.26;20.03
70127;BME280;57491;42.694;23.314;2024-02-15T11:05:36;95571.47;;;23.08;19.88
70127;BME280;57491;42.694;23.314;2024-02-15T11:08:05;95565.84;;;22.04;20.90
70127;BME280;57491;42.694;23.314;2024-02-15T11:10:34;95552.69;;;21.81;21.30
70127;BME280;57491;42.694;23.314;2024-02-15T11:13:02;95562.25;;;22.94;20.70
70127;BME280;57491;42.694;23.314;2024-02-15T11:15:45;95557.16;;;22.87;20.41
70127;BME280;57491;42.694;23.314;2024-02-15T11:18:44;95554.47;;;23.26;20.41
70127;BME280;57491;42.694;23.314;2024-02-15T11:21:12;95550.28;;;24.54;20.09
70127;BME280;57491;42.694;23.314;2024-02-15T11:23:39;95548.91;;;26.12;18.00
70127;BME280;57491;42.694;23.314;2024-02-15T11:26:13;95554.19;;;27.34;17.22
70127;BME280;57491;42.694;23.314;2024-02-15T11:28:57;95544.19;;;27.75;16.46
70127;BME280;57491;42.694;23.314;2024-02-15T11:31:53;95543.41;;;28.57;15.50
70127;BME280;57491;42.694;23.314;2024-02-15T11:34:42;95534.63;;;29.38;15.62
70127;BME280;57491;42.694;23.314;2024-02-15T11:40:12;95531.69;;;30.57;14.58
70127;BME280;57491;42.694;23.314;2024-02-15T11:42:40;95537.41;;;30.32;14.06
70127;BME280;57491;42.694;23.314;2024-02-15T11:45:07;95533.50;;;30.05;15.13
70127;BME280;57491;42.694;23.314;2024-02-15T11:47:37;95524.72;;;27.69;16.03
70127;BME280;57491;42.694;23.314;2024-02-15T11:50:08;95529.78;;;26.21;17.00
70127;BME280;57491;42.694;23.314;2024-02-15T11:52:38;95521.78;;;26.46;17.34
70127;BME280;57491;42.694;23.314;2024-02-15T11:55:07;95523.31;;;27.07;16.82
70127;BME280;57491;42.694;23.314;2024-02-15T11:57:36;95502.59;;;28.03;16.19
70127;BME280;57491;42.694;23.314;2024-02-15T12:00:22;95527.59;;;29.85;14.64
70127;BME280;57491;42.694;23.314;2024-02-15T12:03:08;95528.91;;;30.43;14.24
70127;BME280;57491;42.694;23.314;2024-02-15T12:05:54;95528.31;;;29.72;14.82
70127;BME280;57491;42.694;23.314;2024-02-15T12:08:39;95523.84;;;30.23;14.55
70127;BME280;57491;42.694;23.314;2024-02-15T12:11:23;95521.75;;;31.17;13.98
70127;BME280;57491;42.694;23.314;2024-02-15T12:17:30;95511.38;;;32.95;12.72
70127;BME280;57491;42.694;23.314;2024-02-15T12:20:19;95514.50;;;33.59;12.04
70127;BME280;57491;42.694;23.314;2024-02-15T12:22:51;95513.66;;;34.41;12.47
70127;BME280;57491;42.694;23.314;2024-02-15T12:25:18;95516.53;;;34.36;12.05
70127;BME280;57491;42.694;23.314;2024-02-15T12:27:52;95493.81;;;35.09;11.34
70127;BME280;57491;42.694;23.314;2024-02-15T12:30:20;95512.69;;;34.71;11.62
70127;BME280;57491;42.694;23.314;2024-02-15T12:32:48;95505.06;;;34.73;11.04
70127;BME280;57491;42.694;23.314;2024-02-15T12:35:19;95501.56;;;34.13;11.39
70127;BME280;57491;42.694;23.314;2024-02-15T12:37:49;95483.69;;;33.60;12.16
70127;BME280;57491;42.694;23.314;2024-02-15T12:40:31;95487.03;;;33.48;12.13
70127;BME280;57491;42.694;23.314;2024-02-15T12:42:58;95469.06;;;32.96;12.66
70127;BME280;57491;42.694;23.314;2024-02-15T12:45:27;95495.19;;;33.83;12.03
70127;BME280;57491;42.694;23.314;2024-02-15T12:47:56;95493.28;;;33.92;12.14
70127;BME280;57491;42.694;23.314;2024-02-15T12:50:28;95488.78;;;33.53;12.00
70127;BME280;57491;42.694;23.314;2024-02-15T12:52:55;95476.13;;;32.83;12.11
70127;BME280;57491;42.694;23.314;2024-02-15T12:55:29;95490.91;;;32.63;12.44
70127;BME280;57491;42.694;23.314;2024-02-15T12:58:01;95481.66;;;32.33;12.77
70127;BME280;57491;42.694;23.314;2024-02-15T13:00:31;95480.91;;;32.86;12.60
70127;BME280;57491;42.694;23.314;2024-02-15T13:02:59;95471.06;;;32.59;13.15
70127;BME280;57491;42.694;23.314;2024-02-15T13:05:30;95481.78;;;33.04;12.86
70127;BME280;57491;42.694;23.314;2024-02-15T13:07:58;95476.81;;;33.28;12.70
70127;BME280;57491;42.694;23.314;2024-02-15T13:10:28;95483.69;;;33.51;12.69
70127;BME280;57491;42.694;23.314;2024-02-15T13:12:57;95490.28;;;33.68;12.04